Time;durP1;ratioP1;P1;durP2;ratioP2;P2;SDS_P1;SDS_P2;PMS_P1;PMS_P2;Temp;Humidity;BMP_temperature;BMP_pressure;BME280_temperature;BME280_humidity;BME280_pressure;Samples;Min_cycle;Max_cycle;Signal;HPM_P1;HPM_P2
2022/06/21 00:01:39;;;;;;;3.42;3.13;;;16.50;99.90;;;;;;5003438;28;20061;-77
2022/06/21 00:04:14;;;;;;;3.90;2.85;;;16.50;99.90;;;;;;4987960;28;20046;-77
2022/06/21 00:06:45;;;;;;;5.57;3.25;;;16.50;99.90;;;;;;4992779;28;20046;-77
2022/06/21 00:09:23;;;;;;;2.03;1.83;;;16.50;99.90;;;;;;4986528;28;20042;-77
2022/06/21 00:12:00;;;;;;;2.75;2.05;;;16.50;99.90;;;;;;5000735;28;20046;-77
2022/06/21 00:14:35;;;;;;;2.10;1.92;;;16.40;99.90;;;;;;4986347;28;20042;-77
2022/06/21 00:17:16;;;;;;;7.15;2.13;;;16.40;99.90;;;;;;4999831;28;20479;-77
2022/06/21 00:19:45;;;;;;;5.28;1.85;;;16.30;99.90;;;;;;4987425;28;20104;-77
2022/06/21 00:22:19;;;;;;;1.88;1.77;;;16.20;99.90;;;;;;5005913;28;20057;-77
2022/06/21 00:24:51;;;;;;;2.05;1.85;;;16.20;99.90;;;;;;5006435;28;20042;-78
2022/06/21 00:27:22;;;;;;;1.45;1.33;;;16.10;99.90;;;;;;5005069;28;20058;-77
2022/06/21 00:29:51;;;;;;;4.43;1.83;;;16.00;99.90;;;;;;4988575;28;20042;-77
2022/06/21 00:32:23;;;;;;;1.70;1.35;;;16.00;99.90;;;;;;5005615;28;20052;-77
2022/06/21 00:34:54;;;;;;;;;;;15.90;99.90;;;;;;5006430;28;20598;-77
2022/06/21 00:37:25;;;;;;;1.35;1.25;;;15.80;99.90;;;;;;5006211;28;19925;-77
2022/06/21 00:39:54;;;;;;;2.25;1.52;;;15.70;99.90;;;;;;4990751;28;20041;-77
2022/06/21 00:42:30;;;;;;;5.47;3.33;;;15.60;99.90;;;;;;5005683;28;20515;-77
2022/06/21 00:45:09;;;;;;;3.33;1.50;;;15.60;99.90;;;;;;4988561;28;20066;-77
2022/06/21 00:47:53;;;;;;;2.00;1.60;;;15.50;99.90;;;;;;5006039;28;20057;-77
2022/06/21 00:50:33;;;;;;;2.08;1.98;;;15.50;99.90;;;;;;5005318;28;20046;-77
2022/06/21 00:53:27;;;;;;;3.38;1.77;;;15.40;99.90;;;;;;4987890;28;20054;-77
2022/06/21 00:56:26;;;;;;;1.95;1.58;;;15.40;99.90;;;;;;5006221;28;20053;-77
2022/06/21 00:59:25;;;;;;;3.35;2.33;;;15.30;99.90;;;;;;5008510;28;20419;-77
2022/06/21 01:02:36;;;;;;;1.65;1.55;;;15.20;99.90;;;;;;4991760;28;20042;-77
2022/06/21 01:05:18;;;;;;;2.42;2.22;;;15.10;99.90;;;;;;4991229;28;20495;-77
2022/06/21 01:08:01;;;;;;;1.73;1.63;;;15.10;99.90;;;;;;5008534;28;20048;-77
2022/06/21 01:10:35;;;;;;;2.53;1.50;;;15.00;99.90;;;;;;5008816;28;20046;-77
2022/06/21 01:13:11;;;;;;;1.95;1.67;;;15.00;99.90;;;;;;4991008;28;20050;-78
2022/06/21 01:15:47;;;;;;;1.70;1.45;;;14.90;99.90;;;;;;5009138;28;20511;-77
2022/06/21 01:18:31;;;;;;;1.33;1.20;;;14.90;99.90;;;;;;5002491;28;20060;-77
2022/06/21 01:21:18;;;;;;;3.63;3.22;;;14.90;99.90;;;;;;5009292;28;20065;-77
2022/06/21 01:24:12;;;;;;;2.05;1.92;;;14.80;99.90;;;;;;5008940;28;20046;-77
2022/06/21 01:27:04;;;;;;;2.83;1.52;;;14.80;99.90;;;;;;5007777;28;20559;-77
2022/06/21 01:58:34;;;;;;;3.60;1.65;;;14.70;99.90;;;;;;4989574;28;20053;-77
2022/06/21 02:01:21;;;;;;;1.65;1.55;;;14.70;99.90;;;;;;5008823;28;20486;-77
2022/06/21 02:04:03;;;;;;;2.03;1.13;;;14.70;99.90;;;;;;5008267;28;20049;-77
2022/06/21 02:06:46;;;;;;;1.40;1.30;;;14.60;99.90;;;;;;4991685;28;20077;-77
2022/06/21 02:09:38;;;;;;;1.40;1.30;;;14.70;99.90;;;;;;5007301;28;20807;-77
2022/06/21 02:12:19;;;;;;;1.60;1.50;;;14.70;99.90;;;;;;5007605;28;20041;-77
2022/06/21 02:25:44;;;;;;;1.52;1.40;;;14.60;99.90;;;;;;4930086;29;20047;-77
2022/06/21 02:33:15;;;;;;;1.63;1.20;;;14.50;99.90;;;;;;4972283;28;20046;-77
2022/06/21 02:35:53;;;;;;;0.90;0.90;;;14.50;99.90;;;;;;5012325;28;20522;-77
2022/06/21 02:38:44;;;;;;;0.70;0.65;;;14.40;99.90;;;;;;5019462;28;20049;-77
2022/06/21 02:41:47;;;;;;;1.45;1.35;;;14.40;99.90;;;;;;5023781;28;20065;-76
2022/06/21 02:44:41;;;;;;;1.48;1.38;;;14.40;99.90;;;;;;5026725;28;20049;-77
2022/06/21 02:47:31;;;;;;;1.08;1.08;;;14.40;99.90;;;;;;5027521;28;20053;-77
2022/06/21 03:13:30;;;;;;;0.73;0.73;;;14.40;99.90;;;;;;5003772;28;20049;-77
2022/06/21 03:16:13;;;;;;;0.80;0.80;;;14.30;99.90;;;;;;4989524;28;20825;-77
2022/06/21 03:19:08;;;;;;;0.98;0.90;;;14.40;99.90;;;;;;5005930;28;20818;-77
2022/06/21 03:21:58;;;;;;;1.35;1.00;;;14.30;99.90;;;;;;5005246;28;20049;-77
2022/06/21 03:24:57;;;;;;;1.93;0.87;;;14.40;99.90;;;;;;4986905;28;20053;-80
2022/06/21 03:27:59;;;;;;;0.60;0.60;;;14.40;99.90;;;;;;5005432;28;20053;-77
2022/06/21 03:30:40;;;;;;;0.77;0.77;;;14.40;99.90;;;;;;5005585;28;20471;-77
2022/06/21 03:33:22;;;;;;;5.05;1.55;;;14.40;99.90;;;;;;4997934;28;20056;-77
2022/06/21 03:36:10;;;;;;;0.70;0.70;;;14.40;99.90;;;;;;5012108;28;20403;-77
2022/06/21 03:38:45;;;;;;;0.65;0.65;;;14.40;99.90;;;;;;5024768;28;20049;-76
2022/06/21 03:44:29;;;;;;;2.53;0.98;;;14.40;99.90;;;;;;5017956;28;20068;-76
2022/06/21 03:47:30;;;;;;;1.07;1.07;;;14.40;99.90;;;;;;5009450;28;20042;-77
2022/06/21 03:50:40;;;;;;;0.88;0.75;;;14.30;99.90;;;;;;5025375;28;20289;-77
2022/06/21 03:53:57;;;;;;;3.03;0.90;;;14.40;99.90;;;;;;5006625;28;20415;-77
2022/06/21 03:56:53;;;;;;;1.52;1.42;;;14.30;99.90;;;;;;4972236;28;20054;-77
2022/06/21 03:59:46;;;;;;;0.77;0.77;;;14.40;99.90;;;;;;5024383;28;20042;-77
2022/06/21 04:03:13;;;;;;;2.03;1.45;;;14.40;99.90;;;;;;5025492;28;20030;-77
2022/06/21 04:06:16;;;;;;;0.95;0.95;;;14.40;99.90;;;;;;4998316;28;20038;-77
2022/06/21 04:09:07;;;;;;;1.33;1.23;;;14.30;99.90;;;;;;4989640;28;20058;-77
2022/06/21 04:11:55;;;;;;;;;;;14.40;99.90;;;;;;5005457;28;20042;-77
2022/06/21 04:15:10;;;;;;;0.82;0.82;;;14.30;99.90;;;;;;5003457;28;19925;-77
2022/06/21 04:18:08;;;;;;;1.98;1.05;;;14.30;99.90;;;;;;5003577;28;20058;-77
2022/06/21 04:21:28;;;;;;;1.75;1.60;;;14.30;99.90;;;;;;4988776;28;20054;-77
2022/06/21 04:24:21;;;;;;;1.10;0.95;;;14.30;99.90;;;;;;4988286;28;20046;-77
2022/06/21 04:27:25;;;;;;;1.33;1.27;;;14.20;99.90;;;;;;4987445;28;20648;-77
2022/06/21 04:30:25;;;;;;;1.20;1.20;;;14.20;99.90;;;;;;4987737;28;20136;-78
2022/06/21 04:33:40;;;;;;;1.35;1.25;;;14.10;99.90;;;;;;5009102;28;20050;-79
2022/06/21 04:36:35;;;;;;;2.83;1.50;;;14.20;99.90;;;;;;4998643;28;20055;-77
2022/06/21 04:39:37;;;;;;;2.20;1.65;;;14.10;99.90;;;;;;5006043;28;20068;-77
2022/06/21 04:42:36;;;;;;;1.65;1.45;;;14.10;99.90;;;;;;4992822;28;20045;-77
2022/06/21 04:45:27;;;;;;;1.58;1.35;;;14.10;99.90;;;;;;5009401;28;20053;-77
2022/06/21 04:48:12;;;;;;;1.65;1.02;;;14.10;99.90;;;;;;5008777;28;20046;-77
2022/06/21 04:51:16;;;;;;;1.45;1.35;;;14.10;99.90;;;;;;5008818;28;20042;-77
2022/06/21 04:59:30;;;;;;;2.22;1.60;;;14.00;99.90;;;;;;5008000;28;20042;-77
2022/06/21 05:02:38;;;;;;;5.97;1.60;;;14.10;99.90;;;;;;5008373;28;20049;-77
2022/06/21 05:05:40;;;;;;;1.50;1.30;;;14.10;99.90;;;;;;5007302;28;20050;-78
2022/06/21 05:13:39;;;;;;;1.60;1.50;;;14.20;99.90;;;;;;5036243;28;20387;-78
2022/06/21 05:17:18;;;;;;;1.55;1.45;;;14.20;99.90;;;;;;5048452;28;20052;-78
2022/06/21 05:20:50;;;;;;;1.67;1.58;;;14.10;99.90;;;;;;5026113;28;20499;-77
2022/06/21 05:24:59;;;;;;;2.92;1.80;;;14.00;99.90;;;;;;5010245;28;20058;-78
2022/06/21 05:28:01;;;;;;;1.38;1.27;;;13.90;99.90;;;;;;5001456;28;20049;-78
2022/06/21 05:30:58;;;;;;;5.00;2.10;;;13.90;99.90;;;;;;4990490;28;20038;-77
2022/06/21 05:34:13;;;;;;;4.10;1.25;;;13.90;99.90;;;;;;5020041;28;20037;-77
2022/06/21 05:37:15;;;;;;;1.50;1.40;;;14.00;99.90;;;;;;5025051;28;20376;-78
2022/06/21 05:41:39;;;;;;;2.17;1.58;;;14.10;99.90;;;;;;5010326;28;20053;-78
2022/06/21 05:44:37;;;;;;;3.17;1.67;;;14.00;99.90;;;;;;5018876;28;20522;-77
2022/06/21 05:47:49;;;;;;;2.90;1.20;;;14.00;99.90;;;;;;5009903;28;20064;-78
2022/06/21 05:50:37;;;;;;;1.40;1.23;;;14.00;99.90;;;;;;5010836;28;20037;-78
2022/06/21 05:53:21;;;;;;;2.63;1.35;;;14.10;99.90;;;;;;5020564;28;20050;-77
2022/06/21 05:55:55;;;;;;;4.15;1.95;;;14.10;99.90;;;;;;5027457;28;20049;-77
2022/06/21 05:58:46;;;;;;;3.60;1.40;;;14.10;99.90;;;;;;5024223;28;20033;-78
2022/06/21 06:01:56;;;;;;;1.67;1.45;;;14.10;99.90;;;;;;5006194;28;20041;-80
2022/06/21 06:04:58;;;;;;;1.50;1.40;;;14.10;99.90;;;;;;5010291;28;20045;-77
2022/06/21 06:07:44;;;;;;;2.80;2.13;;;14.10;99.90;;;;;;5027319;28;20056;-77
2022/06/21 06:10:28;;;;;;;1.67;1.40;;;14.10;99.90;;;;;;5019396;28;20041;-78
2022/06/21 06:13:27;;;;;;;1.08;1.08;;;14.10;99.90;;;;;;5025962;28;20037;-78
2022/06/21 06:16:32;;;;;;;2.05;1.20;;;14.10;99.90;;;;;;5027144;28;20067;-78
2022/06/21 06:19:32;;;;;;;1.90;1.75;;;14.20;99.90;;;;;;5025948;28;20474;-79
2022/06/21 06:22:23;;;;;;;1.55;1.45;;;14.30;99.90;;;;;;5026079;28;20052;-78
2022/06/21 06:25:08;;;;;;;;;;;14.40;99.90;;;;;;5025858;28;20487;-79
2022/06/21 06:28:03;;;;;;;1.42;1.30;;;14.40;99.90;;;;;;5027315;28;19925;-78
2022/06/21 06:31:13;;;;;;;3.42;1.45;;;14.40;99.90;;;;;;5023493;28;20030;-78
2022/06/21 06:34:10;;;;;;;2.30;1.60;;;14.50;99.90;;;;;;5042813;28;20065;-78
2022/06/21 06:37:07;;;;;;;1.05;1.05;;;14.50;99.90;;;;;;5011230;28;20388;-78
2022/06/21 06:39:51;;;;;;;5.63;1.70;;;14.60;99.90;;;;;;5010879;28;20046;-78
2022/06/21 06:42:41;;;;;;;3.53;2.40;;;14.50;99.90;;;;;;5025646;28;20034;-78
2022/06/21 06:45:30;;;;;;;3.85;1.38;;;14.50;99.90;;;;;;5026284;28;20042;-78
2022/06/21 06:48:27;;;;;;;2.17;1.98;;;14.50;99.90;;;;;;5023116;28;20045;-78
2022/06/21 06:51:45;;;;;;;2.00;1.90;;;14.60;99.90;;;;;;5012954;28;20041;-77
2022/06/21 06:54:44;;;;;;;1.83;1.50;;;14.60;99.90;;;;;;5034708;28;20053;-77
2022/06/21 06:57:20;;;;;;;1.40;1.30;;;14.60;99.90;;;;;;5024570;28;20065;-77
2022/06/21 06:59:48;;;;;;;1.75;1.45;;;14.70;99.90;;;;;;5008483;28;20045;-78
2022/06/21 07:02:23;;;;;;;1.20;1.10;;;14.70;99.90;;;;;;5026467;28;20049;-78
2022/06/21 07:05:09;;;;;;;4.72;2.47;;;14.70;99.90;;;;;;5026966;28;20484;-77
2022/06/21 07:07:53;;;;;;;3.80;1.38;;;14.80;99.90;;;;;;5025733;28;20048;-76
2022/06/21 07:10:24;;;;;;;3.25;1.83;;;14.80;99.90;;;;;;5019246;28;20045;-76
2022/06/21 07:12:55;;;;;;;1.65;1.15;;;14.80;99.90;;;;;;5026114;28;20049;-77
2022/06/21 07:15:44;;;;;;;1.52;1.42;;;14.80;99.90;;;;;;5026177;28;20053;-79
2022/06/21 07:18:16;;;;;;;2.13;1.33;;;14.90;99.90;;;;;;5026253;28;20053;-80
2022/06/21 07:20:46;;;;;;;2.00;1.45;;;14.80;99.90;;;;;;5026816;28;20053;-77
2022/06/21 07:23:22;;;;;;;1.58;1.48;;;14.90;99.90;;;;;;5026057;28;20512;-76
2022/06/21 07:25:57;;;;;;;1.80;1.63;;;15.00;99.90;;;;;;5026050;28;20495;-77
2022/06/21 07:28:46;;;;;;;1.92;1.77;;;15.20;99.90;;;;;;5010976;28;20061;-77
2022/06/21 07:31:44;;;;;;;1.92;1.48;;;15.30;99.90;;;;;;5012898;28;20045;-77
2022/06/21 07:34:33;;;;;;;6.60;1.77;;;15.40;99.90;;;;;;5043289;28;20045;-77
2022/06/21 07:37:29;;;;;;;3.17;2.08;;;15.30;99.90;;;;;;5013725;28;20053;-77
2022/06/21 07:40:15;;;;;;;3.90;1.67;;;15.30;99.90;;;;;;5025708;28;20050;-77
2022/06/21 07:42:54;;;;;;;1.60;1.50;;;15.30;99.90;;;;;;5007632;28;20318;-77
2022/06/21 07:45:34;;;;;;;2.70;2.50;;;15.40;99.90;;;;;;5006683;28;20045;-77
2022/06/21 07:48:18;;;;;;;2.33;1.30;;;15.40;99.90;;;;;;5006275;28;20049;-77
2022/06/21 07:50:50;;;;;;;8.52;1.70;;;15.40;99.90;;;;;;5006369;28;20042;-77
2022/06/21 07:53:28;;;;;;;1.92;1.35;;;15.50;99.90;;;;;;5006472;28;20050;-77
2022/06/21 07:56:09;;;;;;;5.07;1.45;;;15.60;99.90;;;;;;5022884;28;20077;-77
2022/06/21 07:59:05;;;;;;;3.05;1.65;;;15.60;99.90;;;;;;5024936;28;20037;-77
2022/06/21 08:07:26;;;;;;;2.70;1.73;;;15.90;99.90;;;;;;5009975;28;19925;-77
2022/06/21 08:10:06;;;;;;;1.83;1.45;;;16.00;99.90;;;;;;5010044;28;20050;-77
2022/06/21 08:12:34;;;;;;;3.60;2.78;;;16.00;99.90;;;;;;5010025;28;20050;-77
2022/06/21 08:15:04;;;;;;;1.55;1.45;;;16.20;99.90;;;;;;5010059;28;20060;-77
2022/06/21 08:17:50;;;;;;;2.65;1.73;;;16.40;99.90;;;;;;5010346;28;20049;-77
2022/06/21 08:20:31;;;;;;;2.38;1.60;;;16.40;99.90;;;;;;5001473;28;20053;-77
2022/06/21 08:23:20;;;;;;;1.80;1.70;;;16.50;99.90;;;;;;5010138;28;20387;-77
2022/06/21 08:26:00;;;;;;;2.10;2.00;;;16.60;99.90;;;;;;5026520;28;20075;-77
2022/06/21 08:28:36;;;;;;;3.30;0.88;;;16.80;99.90;;;;;;5027776;28;20081;-77
2022/06/21 08:31:32;;;;;;;1.70;1.60;;;17.00;99.90;;;;;;5028607;28;20040;-77
2022/06/21 08:34:08;;;;;;;1.83;1.35;;;17.20;99.90;;;;;;5027072;28;20060;-77
2022/06/21 08:36:54;;;;;;;1.70;1.60;;;17.20;99.90;;;;;;5011446;28;20048;-77
2022/06/21 08:39:38;;;;;;;2.10;1.92;;;17.30;99.90;;;;;;5007869;28;20987;-77
2022/06/21 08:42:45;;;;;;;3.55;1.80;;;17.40;99.90;;;;;;5028533;28;20052;-77
2022/06/21 08:45:40;;;;;;;8.63;3.97;;;17.40;99.90;;;;;;5028744;28;20050;-77
2022/06/21 08:48:17;;;;;;;2.80;1.50;;;17.50;99.90;;;;;;4994470;28;20499;-78
2022/06/21 08:51:04;;;;;;;2.80;1.58;;;17.60;99.90;;;;;;5029228;28;20049;-78
2022/06/21 08:53:51;;;;;;;4.00;1.55;;;17.70;99.90;;;;;;5029573;28;20049;-77
2022/06/21 08:56:30;;;;;;;8.63;2.05;;;17.60;99.90;;;;;;4991592;28;20068;-77
2022/06/21 08:59:24;;;;;;;3.25;2.50;;;17.80;99.90;;;;;;5008108;28;20052;-78
2022/06/21 09:02:14;;;;;;;2.42;2.22;;;17.90;99.90;;;;;;5023231;28;20558;-78
2022/06/21 09:04:45;;;;;;;4.47;2.53;;;18.00;99.90;;;;;;5028634;28;20052;-78
2022/06/21 09:07:25;;;;;;;3.17;2.25;;;18.00;99.90;;;;;;5039870;28;20083;-77
2022/06/21 09:10:07;;;;;;;4.68;1.85;;;18.00;99.90;;;;;;5041071;28;20057;-78
2022/06/21 09:12:50;;;;;;;4.35;2.65;;;18.10;99.90;;;;;;5038917;28;20049;-77
2022/06/21 09:15:32;;;;;;;1.73;1.58;;;18.20;99.90;;;;;;5033723;28;20057;-77
2022/06/21 09:18:35;;;;;;;4.35;2.05;;;18.50;99.90;;;;;;5054697;28;20045;-77
2022/06/21 09:21:15;;;;;;;3.50;1.33;;;18.60;99.90;;;;;;5028895;28;20076;-78
2022/06/21 09:23:49;;;;;;;2.45;2.25;;;18.50;99.90;;;;;;5028555;28;20061;-78
2022/06/21 09:26:37;;;;;;;4.57;2.28;;;18.50;99.90;;;;;;5008475;28;20050;-78
2022/06/21 09:29:27;;;;;;;3.45;3.15;;;18.60;99.90;;;;;;5029284;28;20468;-79
2022/06/21 09:32:22;;;;;;;2.55;2.00;;;18.70;99.90;;;;;;5035833;28;20056;-79
2022/06/21 09:34:54;;;;;;;2.35;2.15;;;18.90;99.90;;;;;;5008215;28;20042;-79
2022/06/21 09:37:34;;;;;;;2.17;1.98;;;19.10;99.90;;;;;;5028318;28;20049;-79
2022/06/21 09:40:10;;;;;;;3.30;3.00;;;19.20;99.90;;;;;;5028359;28;20045;-79
2022/06/21 09:43:24;;;;;;;2.33;2.13;;;19.10;99.90;;;;;;5029119;28;20052;-79
2022/06/21 09:46:13;;;;;;;2.83;2.63;;;18.90;99.90;;;;;;5025521;28;20430;-79
2022/06/21 09:49:11;;;;;;;2.70;2.13;;;18.90;99.90;;;;;;5060420;28;20052;-80
2022/06/21 09:52:04;;;;;;;4.38;2.10;;;19.00;99.90;;;;;;5007233;28;20040;-78
2022/06/21 09:54:40;;;;;;;4.07;2.72;;;19.30;99.90;;;;;;5015233;28;20041;-78
2022/06/21 09:57:33;;;;;;;6.70;3.38;;;19.60;99.90;;;;;;5008373;28;20503;-79
2022/06/21 10:00:28;;;;;;;14.40;3.92;;;19.80;99.90;;;;;;5007857;28;20046;-78
2022/06/21 10:03:06;;;;;;;3.55;3.22;;;19.60;99.90;;;;;;5006943;28;20061;-78
2022/06/21 10:05:56;;;;;;;4.25;3.08;;;19.50;99.90;;;;;;4993939;28;20054;-78
2022/06/21 10:08:42;;;;;;;4.18;2.55;;;19.60;99.90;;;;;;5019497;28;20503;-78
2022/06/21 10:11:44;;;;;;;3.65;3.03;;;20.00;99.90;;;;;;5025965;28;20407;-78
2022/06/21 10:14:20;;;;;;;3.30;2.53;;;20.20;99.90;;;;;;4971705;28;20754;-77
2022/06/21 10:16:54;;;;;;;5.18;3.95;;;20.00;99.90;;;;;;5027025;28;20042;-78
2022/06/21 10:19:45;;;;;;;6.65;3.10;;;19.80;99.90;;;;;;5010295;28;20041;-78
2022/06/21 10:22:28;;;;;;;3.20;3.00;;;19.70;99.90;;;;;;4994757;28;20046;-78
2022/06/21 10:25:20;;;;;;;3.72;2.50;;;19.60;99.90;;;;;;5023528;28;20052;-79
2022/06/21 10:28:06;;;;;;;4.55;2.70;;;19.50;99.90;;;;;;5006279;28;20041;-78
2022/06/21 10:30:52;;;;;;;4.47;2.72;;;19.40;99.90;;;;;;5026678;28;20037;-79
2022/06/21 10:33:39;;;;;;;7.32;3.55;;;19.30;99.90;;;;;;5027537;28;20060;-78
2022/06/21 10:36:50;;;;;;;4.07;3.35;;;19.40;99.90;;;;;;4993209;28;20060;-78
2022/06/21 10:39:36;;;;;;;;;;;19.70;99.90;;;;;;5013005;28;20057;-80
2022/06/21 10:45:35;;;;;;;6.65;3.78;;;20.30;99.90;;;;;;5013920;28;20046;-79
2022/06/21 10:48:33;;;;;;;3.47;3.00;;;20.30;99.90;;;;;;5026129;28;20080;-78
2022/06/21 10:51:14;;;;;;;5.97;2.97;;;20.40;99.90;;;;;;5009085;28;20041;-81
2022/06/21 10:53:50;;;;;;;2.75;2.55;;;20.50;99.90;;;;;;5027563;28;20072;-77
2022/06/21 10:59:29;;;;;;;4.22;2.65;;;20.60;99.90;;;;;;5018336;28;20252;-78
2022/06/21 11:02:16;;;;;;;5.68;3.42;;;20.70;99.90;;;;;;5026713;28;20041;-78
2022/06/21 11:05:05;;;;;;;6.90;3.55;;;20.90;99.90;;;;;;5027081;28;20049;-77
2022/06/21 11:08:12;;;;;;;3.17;2.95;;;20.60;99.90;;;;;;5024556;28;20045;-79
2022/06/21 11:10:50;;;;;;;7.75;3.90;;;20.30;99.90;;;;;;5021273;28;20041;-78
2022/06/21 11:13:22;;;;;;;3.53;2.88;;;20.40;99.90;;;;;;5026542;28;20053;-78
2022/06/21 11:35:52;;;;;;;4.65;4.15;;;20.80;99.90;;;;;;5097353;27;20429;-77
2022/06/21 11:38:42;;;;;;;4.75;4.22;;;21.40;99.90;;;;;;5064189;28;20037;-78
2022/06/21 11:44:46;;;;;;;4.68;3.65;;;21.60;99.90;;;;;;5099899;28;20059;-77
2022/06/21 11:47:32;;;;;;;6.22;4.28;;;21.60;99.90;;;;;;5089471;28;20173;-77
2022/06/21 11:50:11;;;;;;;5.60;4.25;;;21.80;99.90;;;;;;5099013;28;20051;-78
2022/06/21 11:53:04;;;;;;;3.63;3.33;;;21.90;99.90;;;;;;5103166;28;20051;-79
2022/06/21 11:55:41;;;;;;;7.10;3.55;;;21.70;99.90;;;;;;5101153;28;20399;-78
2022/06/21 11:58:18;;;;;;;3.90;3.55;;;21.70;99.90;;;;;;5100921;28;20052;-78
2022/06/21 12:01:03;;;;;;;4.45;4.05;;;21.70;99.90;;;;;;5084940;28;20056;-78
2022/06/21 12:03:55;;;;;;;8.10;2.67;;;21.60;99.90;;;;;;5082300;28;20044;-78
2022/06/21 12:06:35;;;;;;;6.38;4.05;;;21.70;99.90;;;;;;5101729;28;20040;-78
2022/06/21 12:09:07;;;;;;;4.28;3.00;;;21.90;99.90;;;;;;5102883;28;20048;-78
2022/06/21 12:11:53;;;;;;;3.42;2.92;;;22.00;99.90;;;;;;5083456;28;20044;-78
2022/06/21 12:14:37;;;;;;;3.72;2.72;;;22.00;99.90;;;;;;5083172;28;20040;-78
2022/06/21 12:17:41;;;;;;;4.05;3.60;;;21.90;99.90;;;;;;5097026;28;20408;-78
2022/06/21 12:24:51;;;;;;;5.70;3.53;;;21.90;99.90;;;;;;5063909;28;20079;-78
2022/06/21 12:38:15;;;;;;;5.47;3.03;;;22.30;99.90;;;;;;5022255;28;20045;-80
2022/06/21 12:46:55;;;;;;;3.95;3.05;;;22.30;99.90;;;;;;5031969;28;20052;-79
2022/06/21 12:51:53;;;;;;;5.50;3.72;;;22.40;99.90;;;;;;5026889;28;20599;-80
2022/06/21 12:55:00;;;;;;;3.22;2.92;;;22.50;99.90;;;;;;5036884;28;20045;-80
2022/06/21 13:03:37;;;;;;;4.43;3.28;;;22.40;99.90;;;;;;5029355;28;20044;-80
2022/06/21 13:12:14;;;;;;;3.85;3.15;;;22.10;99.90;;;;;;5030781;28;20037;-80
2022/06/21 13:30:30;;;;;;;4.47;4.07;;;22.70;99.90;;;;;;5045068;28;20049;-83
2022/06/21 13:33:12;;;;;;;3.63;3.38;;;22.70;99.90;;;;;;5048728;28;20056;-82
2022/06/21 13:36:00;;;;;;;6.25;3.47;;;22.60;99.90;;;;;;5052637;28;20066;-82
2022/06/21 13:38:36;;;;;;;7.97;5.10;;;22.70;99.90;;;;;;5069280;28;20051;-81
2022/06/21 13:44:37;;;;;;;4.55;4.15;;;22.90;99.90;;;;;;5069629;28;20078;-82
2022/06/21 13:47:13;;;;;;;4.68;3.60;;;23.10;99.90;;;;;;5069004;28;20047;-83
2022/06/21 13:49:47;;;;;;;4.22;3.63;;;23.10;99.90;;;;;;5069688;28;20078;-83
2022/06/21 13:52:34;;;;;;;4.32;4.00;;;23.00;99.90;;;;;;5079241;28;20032;-86
2022/06/21 13:55:46;;;;;;;4.78;4.38;;;23.00;99.90;;;;;;5080311;28;20118;-82
2022/06/21 13:58:37;;;;;;;2.78;2.58;;;22.90;99.90;;;;;;5085925;28;20055;-83
2022/06/21 14:01:29;;;;;;;9.02;4.78;;;23.10;99.90;;;;;;5071705;28;20380;-82
2022/06/21 14:04:10;;;;;;;4.88;4.43;;;23.20;99.90;;;;;;5071503;28;20048;-82
2022/06/21 14:07:27;;;;;;;3.47;3.22;;;23.20;99.90;;;;;;5088302;28;20047;-83
2022/06/21 14:10:18;;;;;;;8.55;5.70;;;23.10;99.90;;;;;;5014504;28;20820;-84
2022/06/21 14:13:01;;;;;;;5.82;3.65;;;23.20;99.90;;;;;;5055028;28;20423;-82
2022/06/21 14:15:53;;;;;;;4.38;3.22;;;23.20;99.90;;;;;;5070344;28;20040;-81
2022/06/21 14:18:51;;;;;;;3.53;3.25;;;23.20;99.90;;;;;;5085814;28;20048;-83
2022/06/21 14:21:40;;;;;;;3.40;3.15;;;23.20;99.90;;;;;;5085328;28;20046;-84
2022/06/21 14:24:37;;;;;;;3.92;3.30;;;23.20;99.90;;;;;;5067958;28;20040;-86
2022/06/21 14:27:42;;;;;;;11.35;3.60;;;23.20;99.90;;;;;;5069159;28;20514;-84
2022/06/21 14:30:19;;;;;;;5.43;3.13;;;23.20;99.90;;;;;;5086826;28;20161;-85
2022/06/21 14:33:26;;;;;;;7.63;3.75;;;23.20;99.90;;;;;;5070555;28;20492;-83
2022/06/21 14:36:07;;;;;;;7.95;4.05;;;23.30;99.90;;;;;;5051637;28;20055;-86
2022/06/21 14:38:43;;;;;;;4.75;3.67;;;23.30;99.90;;;;;;5067295;28;20032;-85
2022/06/21 14:41:22;;;;;;;6.20;3.35;;;23.20;99.90;;;;;;5079570;28;20049;-82
2022/06/21 14:44:00;;;;;;;7.60;3.65;;;23.20;99.90;;;;;;5063456;28;20044;-82
2022/06/21 14:46:37;;;;;;;8.50;3.90;;;23.10;99.90;;;;;;5066839;28;20045;-83
2022/06/21 14:49:16;;;;;;;3.85;3.53;;;23.20;99.90;;;;;;5068354;28;20051;-82
2022/06/21 14:52:08;;;;;;;3.08;2.88;;;23.20;99.90;;;;;;5067794;28;20051;-83
2022/06/21 14:54:52;;;;;;;4.72;2.75;;;23.30;99.90;;;;;;5066765;28;20063;-81
2022/06/21 14:57:43;;;;;;;4.47;2.88;;;23.40;99.90;;;;;;5066609;28;20059;-84
2022/06/21 15:00:20;;;;;;;;;;;23.40;99.90;;;;;;5051869;28;20048;-79
2022/06/21 15:03:28;;;;;;;2.10;2.00;;;23.40;99.90;;;;;;5070238;28;19939;-79
2022/06/21 15:06:25;;;;;;;4.85;3.17;;;23.50;99.90;;;;;;5084398;28;20127;-79
2022/06/21 15:09:13;;;;;;;24.85;4.93;;;23.50;99.90;;;;;;5061605;28;20059;-78
2022/06/21 15:11:56;;;;;;;8.35;3.10;;;23.50;99.90;;;;;;5085843;28;20391;-79
2022/06/21 15:14:40;;;;;;;5.85;3.15;;;23.60;99.90;;;;;;5076403;28;20041;-80
2022/06/21 15:17:19;;;;;;;3.72;3.25;;;23.60;99.90;;;;;;5066444;28;20048;-79
2022/06/21 15:19:55;;;;;;;4.25;2.80;;;23.50;99.90;;;;;;5077796;28;20829;-79
2022/06/21 15:22:44;;;;;;;5.50;3.70;;;23.60;99.90;;;;;;5086020;28;20043;-80
2022/06/21 15:26:03;;;;;;;3.20;2.90;;;23.70;99.90;;;;;;5085743;28;20051;-75
2022/06/21 15:28:31;;;;;;;6.53;4.28;;;23.80;99.90;;;;;;5044586;28;20538;-75
2022/06/21 15:31:08;;;;;;;3.88;2.35;;;23.70;99.90;;;;;;5086264;28;20557;-75
2022/06/21 15:33:54;;;;;;;6.75;3.20;;;23.60;99.90;;;;;;5067137;28;20055;-77
2022/06/21 15:36:54;;;;;;;4.53;2.85;;;23.60;99.90;;;;;;5081524;28;20060;-77
2022/06/21 15:39:38;;;;;;;3.20;2.95;;;23.70;99.90;;;;;;5078830;28;20055;-78
2022/06/21 15:42:18;;;;;;;6.45;2.50;;;23.90;99.90;;;;;;5085012;28;20048;-79
2022/06/21 15:44:51;;;;;;;3.23;3.00;;;23.90;99.90;;;;;;5086439;28;20051;-77
2022/06/21 15:50:48;;;;;;;7.28;3.42;;;23.80;99.90;;;;;;5085485;28;20044;-79
2022/06/21 15:53:40;;;;;;;2.67;2.47;;;23.90;99.90;;;;;;5068133;28;20048;-83
2022/06/21 15:56:30;;;;;;;9.65;3.08;;;23.70;99.90;;;;;;5085182;28;20039;-78
2022/06/21 15:59:28;;;;;;;4.18;2.53;;;23.70;99.90;;;;;;5058174;28;20062;-78
2022/06/21 16:02:27;;;;;;;5.32;3.63;;;23.80;99.90;;;;;;5059137;28;20053;-80
2022/06/21 16:05:08;;;;;;;3.13;2.85;;;23.90;99.90;;;;;;5047541;28;20052;-80
2022/06/21 16:07:46;;;;;;;2.50;2.35;;;24.00;99.90;;;;;;5069964;28;20059;-79
2022/06/21 16:10:38;;;;;;;2.88;2.67;;;23.90;99.90;;;;;;5048624;28;20740;-80
2022/06/21 16:13:26;;;;;;;2.70;2.45;;;23.90;99.90;;;;;;5069562;28;20048;-80
2022/06/21 16:15:56;;;;;;;2.72;2.53;;;23.80;99.90;;;;;;5069114;28;20055;-80
2022/06/21 16:18:31;;;;;;;3.07;2.87;;;23.70;99.90;;;;;;5069515;28;20044;-79
2022/06/21 16:21:13;;;;;;;2.35;2.00;;;23.70;99.90;;;;;;5090005;28;20055;-79
2022/06/21 16:23:43;;;;;;;1.80;1.70;;;23.70;99.90;;;;;;5089151;28;20062;-81
2022/06/21 16:26:41;;;;;;;2.72;2.47;;;23.90;99.90;;;;;;5070528;28;20044;-79
2022/06/21 16:29:34;;;;;;;3.08;2.00;;;24.00;99.90;;;;;;5089951;28;20051;-80
2022/06/21 16:35:15;;;;;;;2.83;2.58;;;24.00;99.90;;;;;;5089159;28;20044;-79
2022/06/21 16:37:58;;;;;;;6.55;2.42;;;24.10;99.90;;;;;;5089151;28;20051;-79
2022/06/21 16:43:26;;;;;;;5.00;2.22;;;24.40;99.90;;;;;;5068667;28;20045;-79
2022/06/21 16:46:26;;;;;;;6.78;3.03;;;24.40;99.90;;;;;;5069386;28;20395;-79
2022/06/21 16:49:03;;;;;;;13.38;3.85;;;24.20;99.90;;;;;;5056550;28;20040;-79
2022/06/21 16:51:43;;;;;;;2.45;2.03;;;24.10;99.90;;;;;;5080587;28;20037;-80
2022/06/21 16:54:38;;;;;;;2.20;2.00;;;24.10;99.90;;;;;;5070173;28;20051;-79
2022/06/21 16:57:23;;;;;;;3.75;2.35;;;24.00;99.90;;;;;;5065807;28;20048;-81
2022/06/21 16:59:51;;;;;;;2.22;2.03;;;23.90;99.90;;;;;;5056663;28;20044;-82
2022/06/21 17:02:22;;;;;;;2.22;2.10;;;23.90;99.90;;;;;;5068494;28;20040;-81
2022/06/21 17:05:13;;;;;;;8.82;3.08;;;24.00;99.90;;;;;;5071718;28;20040;-84
2022/06/21 17:07:54;;;;;;;3.70;2.03;;;24.10;99.90;;;;;;5037023;28;20451;-84
2022/06/21 17:13:29;;;;;;;5.60;2.50;;;23.30;99.90;;;;;;5086851;28;20044;-83
2022/06/21 17:16:09;;;;;;;15.50;2.63;;;22.80;99.90;;;;;;5070233;28;20640;-84
2022/06/21 17:19:10;;;;;;;2.63;2.03;;;22.60;99.90;;;;;;5052548;28;20067;-84
2022/06/21 17:22:11;;;;;;;6.57;3.17;;;22.40;99.90;;;;;;5036698;28;20529;-86
2022/06/21 17:24:50;;;;;;;5.57;3.05;;;22.30;99.90;;;;;;5022466;28;20071;-85
2022/06/21 17:27:39;;;;;;;4.90;2.38;;;22.10;99.90;;;;;;5069698;28;20044;-86
2022/06/21 17:30:35;;;;;;;2.80;2.35;;;22.00;99.90;;;;;;5050059;28;20051;-85
2022/06/21 17:33:26;;;;;;;6.03;2.65;;;22.00;99.90;;;;;;5053368;28;20048;-85
2022/06/21 17:36:38;;;;;;;1.73;1.63;;;22.00;99.90;;;;;;5045244;28;20060;-86
2022/06/21 17:39:39;;;;;;;2.10;1.90;;;22.10;99.90;;;;;;5047933;28;20051;-85